createdAt,value
2017-11-12T00:00:33.316Z,170.2
2017-11-12T00:01:34.143Z,157.5
2017-11-12T00:02:34.871Z,154.8
2017-11-12T00:03:35.606Z,135.3
2017-11-12T00:04:36.384Z,123.6
2017-11-12T00:05:37.182Z,133.3
2017-11-12T00:06:37.914Z,122.3
2017-11-12T00:07:38.669Z,133.2
2017-11-12T00:08:39.399Z,134.7
2017-11-12T00:09:40.186Z,134.1
2017-11-12T00:10:40.930Z,138.4
2017-11-12T00:11:41.686Z,173.1
2017-11-12T00:12:42.406Z,117.3
2017-11-12T00:13:43.223Z,133.9
2017-11-12T00:14:43.949Z,130.2
2017-11-12T00:15:44.674Z,203.8
2017-11-12T00:16:45.706Z,154.9
2017-11-12T00:17:46.397Z,124.9
2017-11-12T00:18:47.205Z,116.1
2017-11-12T00:19:47.925Z,114.4
2017-11-12T00:20:48.640Z,123.5
2017-11-12T00:21:49.364Z,120.8
2017-11-12T00:22:50.092Z,113.4
2017-11-12T00:23:50.810Z,125.2
2017-11-12T00:24:51.561Z,121.7
2017-11-12T00:25:52.323Z,134.4
2017-11-12T00:26:53.116Z,129.8
2017-11-12T00:27:53.836Z,227.8
2017-11-12T00:28:54.630Z,148.2
2017-11-12T00:29:55.351Z,123.2
2017-11-12T00:30:56.250Z,118.9
2017-11-12T00:31:56.976Z,134.1
2017-11-12T00:32:57.733Z,132.2
2017-11-12T00:33:58.451Z,120.4
2017-11-12T00:34:59.170Z,133.7
2017-11-12T00:35:59.953Z,132.5
2017-11-12T00:37:00.751Z,121.1
2017-11-12T00:38:01.481Z,123.8
2017-11-12T00:39:02.201Z,119.5
2017-11-12T00:40:02.986Z,128.7
2017-11-12T00:41:03.720Z,114.3
2017-11-12T00:42:04.441Z,120.3
2017-11-12T00:43:05.160Z,121.6
2017-11-12T00:44:05.938Z,119.2
2017-11-12T00:45:06.731Z,123.8
2017-11-12T00:46:07.466Z,130.8
2017-11-12T00:47:08.321Z,105.9
2017-11-12T00:48:09.058Z,148.8
2017-11-12T00:49:09.750Z,127.4
2017-11-12T00:50:10.557Z,129.0
2017-11-12T00:51:11.337Z,135.5
2017-11-12T00:52:12.157Z,142.8
2017-11-12T00:53:12.924Z,134.5
2017-11-12T00:54:13.647Z,132.8
2017-11-12T00:55:14.374Z,162.8
2017-11-12T00:56:15.101Z,131.2
2017-11-12T00:57:15.834Z,134.4
2017-11-12T00:58:16.491Z,156.3
2017-11-12T00:59:17.191Z,152.2
2017-11-12T01:00:17.903Z,172.2
2017-11-12T01:01:18.632Z,145.7
2017-11-12T01:02:19.450Z,169.8
2017-11-12T01:03:20.172Z,160.2
2017-11-12T01:04:20.965Z,123.7
2017-11-12T01:05:21.720Z,128.4
2017-11-12T01:06:22.441Z,134.7
2017-11-12T01:07:23.553Z,124.5
2017-11-12T01:08:24.269Z,128.2
2017-11-12T01:09:24.999Z,136.3
2017-11-12T01:10:26.105Z,134.7
2017-11-12T01:11:26.769Z,144.0
2017-11-12T01:12:27.619Z,127.6
2017-11-12T01:13:28.342Z,142.7
2017-11-12T01:14:29.164Z,133.3
2017-11-12T01:15:29.911Z,127.6
2017-11-12T01:16:30.643Z,142.5
2017-11-12T01:17:31.836Z,140.4
2017-11-12T01:18:32.501Z,116.0
2017-11-12T01:19:33.231Z,117.2
2017-11-12T01:20:34.028Z,124.9
2017-11-12T01:21:34.754Z,137.7
2017-11-12T01:22:35.616Z,143.9
2017-11-12T01:23:36.353Z,123.0
2017-11-12T01:24:37.140Z,137.7
2017-11-12T01:25:37.852Z,145.3
2017-11-12T01:26:38.830Z,111.3
2017-11-12T01:27:39.580Z,129.1
2017-11-12T01:28:40.306Z,133.4
2017-11-12T01:29:41.029Z,118.1
2017-11-12T01:30:41.754Z,124.2
2017-11-12T01:31:42.505Z,120.3
2017-11-12T01:32:43.278Z,127.4
2017-11-12T01:33:44.003Z,146.1
2017-11-12T01:34:44.799Z,139.3
2017-11-12T01:35:45.531Z,130.5
2017-11-12T01:36:46.328Z,146.8
2017-11-12T01:37:47.039Z,145.7
2017-11-12T01:38:47.761Z,127.0
2017-11-12T01:39:48.483Z,125.2
2017-11-12T01:40:49.265Z,125.9
2017-11-12T01:41:50.060Z,151.1
2017-11-12T01:42:50.850Z,122.8
2017-11-12T01:43:51.570Z,160.5
2017-11-12T01:44:52.359Z,127.9
2017-11-12T01:45:53.090Z,141.0
2017-11-12T01:46:53.810Z,140.4
2017-11-12T01:47:54.623Z,156.7
2017-11-12T01:48:55.438Z,150.7
2017-11-12T01:49:56.121Z,133.7
2017-11-12T01:50:56.843Z,151.9
2017-11-12T01:51:57.653Z,153.6
2017-11-12T01:52:59.161Z,131.5
2017-11-12T01:53:59.920Z,165.5
2017-11-12T01:55:00.640Z,145.0
2017-11-12T01:56:01.360Z,141.0
2017-11-12T01:57:02.089Z,171.4
2017-11-12T01:58:03.170Z,191.4
2017-11-12T01:59:03.887Z,162.3
2017-11-12T02:00:04.721Z,160.3
2017-11-12T02:01:05.434Z,167.8
2017-11-12T02:02:06.245Z,139.0
2017-11-12T02:03:07.097Z,141.9
2017-11-12T02:04:07.853Z,146.7
2017-11-12T02:05:08.670Z,155.1
2017-11-12T02:06:09.394Z,156.3
2017-11-12T02:07:10.109Z,141.1
2017-11-12T02:08:10.946Z,146.5
2017-11-12T02:09:11.762Z,159.2
2017-11-12T02:10:12.497Z,147.6
2017-11-12T02:11:13.308Z,155.8
2017-11-12T02:12:14.023Z,123.0
2017-11-12T02:13:14.841Z,132.8
2017-11-12T02:14:15.650Z,156.0
2017-11-12T02:15:16.378Z,133.9
2017-11-12T02:16:17.094Z,140.8
2017-11-12T02:17:17.824Z,171.3
2017-11-12T02:18:18.905Z,158.0
2017-11-12T02:19:19.626Z,161.5
2017-11-12T02:20:20.376Z,160.9
2017-11-12T02:21:21.093Z,154.3
2017-11-12T02:22:21.930Z,156.0
2017-11-12T02:23:23.068Z,141.9
2017-11-12T02:24:23.804Z,142.3
2017-11-12T02:25:25.055Z,157.5
2017-11-12T02:26:26.043Z,149.4
2017-11-12T02:27:26.741Z,161.6
2017-11-12T02:28:27.546Z,156.4
2017-11-12T02:29:28.271Z,175.8
2017-11-12T02:30:29.028Z,172.4
2017-11-12T02:31:29.889Z,169.6
2017-11-12T02:32:30.934Z,171.0
2017-11-12T02:33:32.754Z,175.0
2017-11-12T02:34:33.663Z,164.9
2017-11-12T02:35:34.721Z,172.5
2017-11-12T02:36:35.431Z,175.0
2017-11-12T02:37:37.303Z,188.7
2017-11-12T02:38:38.198Z,196.1
2017-11-12T02:39:40.104Z,188.9
2017-11-12T02:40:42.092Z,201.8
2017-11-12T02:41:44.210Z,179.5
2017-11-12T02:42:46.067Z,196.2
2017-11-12T02:43:47.320Z,198.2
2017-11-12T02:44:48.126Z,187.3
2017-11-12T02:45:49.113Z,188.0
2017-11-12T02:46:49.892Z,185.4
2017-11-12T02:47:50.663Z,176.1
2017-11-12T02:48:51.472Z,182.6
2017-11-12T02:49:52.308Z,175.5
2017-11-12T02:50:53.050Z,189.7
2017-11-12T02:51:53.774Z,169.3
2017-11-12T02:52:54.501Z,176.4
2017-11-12T02:53:55.243Z,196.9
2017-11-12T02:54:55.952Z,186.1
2017-11-12T02:55:56.808Z,279.4
2017-11-12T02:56:57.557Z,204.9
2017-11-12T02:57:58.261Z,194.8
2017-11-12T02:58:59.053Z,197.9
2017-11-12T02:59:59.831Z,221.1
2017-11-12T03:01:00.848Z,201.6
2017-11-12T03:02:01.599Z,194.2
2017-11-12T03:03:02.290Z,186.3
2017-11-12T03:04:03.018Z,200.9
2017-11-12T03:05:03.830Z,174.1
2017-11-12T03:06:04.558Z,248.6
2017-11-12T03:08:19.633Z,191.8
2017-11-12T03:09:20.360Z,211.1
2017-11-12T03:10:21.082Z,202.2
2017-11-12T03:11:21.836Z,186.2
2017-11-12T03:12:22.648Z,214.9
2017-11-12T03:13:23.459Z,199.0
2017-11-12T03:14:24.179Z,202.8
2017-11-12T03:15:24.927Z,188.0
2017-11-12T03:16:25.662Z,198.5
2017-11-12T03:17:26.480Z,207.3
2017-11-12T03:18:27.300Z,220.6
2017-11-12T03:19:28.102Z,197.5
2017-11-12T03:20:28.821Z,186.1
2017-11-12T03:21:29.543Z,201.1
2017-11-12T03:22:30.349Z,187.8
2017-11-12T03:23:31.462Z,185.1
2017-11-12T03:24:32.181Z,221.6
2017-11-12T03:25:32.898Z,198.2
2017-11-12T03:26:33.631Z,209.0
2017-11-12T03:27:34.351Z,200.6
2017-11-12T03:28:35.070Z,178.4
2017-11-12T03:29:35.790Z,196.9
2017-11-12T03:30:36.585Z,199.6
2017-11-12T03:31:37.314Z,195.3
2017-11-12T03:32:38.432Z,196.0
2017-11-12T03:33:39.218Z,199.9
2017-11-12T03:34:39.933Z,201.6
2017-11-12T03:35:40.710Z,193.4
2017-11-12T03:36:41.422Z,193.7
2017-11-12T03:37:42.188Z,195.2
2017-11-12T03:38:42.892Z,223.2
2017-11-12T03:39:43.610Z,196.9
2017-11-12T03:40:44.342Z,197.7
2017-11-12T03:41:45.061Z,220.4
2017-11-12T03:42:45.794Z,213.2
2017-11-12T03:43:46.582Z,205.5
2017-11-12T03:44:47.280Z,198.6
2017-11-12T03:45:48.001Z,235.4
2017-11-12T03:46:48.721Z,196.0
2017-11-12T03:47:49.502Z,199.5
2017-11-12T03:48:50.209Z,193.2
2017-11-12T03:49:50.931Z,184.8
2017-11-12T03:50:51.658Z,203.8
2017-11-12T03:51:52.382Z,186.7
2017-11-12T03:52:53.105Z,184.6
2017-11-12T03:53:53.842Z,198.7
2017-11-12T03:54:54.610Z,199.8
2017-11-12T03:55:55.412Z,177.1
2017-11-12T03:56:56.123Z,220.6
2017-11-12T03:57:56.849Z,219.4
2017-11-12T03:58:57.570Z,223.3
2017-11-12T03:59:58.405Z,224.1
2017-11-12T04:00:59.176Z,224.8
2017-11-12T04:01:59.898Z,223.2
2017-11-12T04:03:00.628Z,220.9
2017-11-12T04:04:01.389Z,249.4
2017-11-12T04:05:02.170Z,239.0
2017-11-12T04:06:02.897Z,237.7
2017-11-12T04:07:03.676Z,217.8
2017-11-12T04:08:04.388Z,239.2
2017-11-12T04:09:05.118Z,237.4
2017-11-12T04:10:05.958Z,235.6
2017-11-12T04:11:06.671Z,206.5
2017-11-12T04:12:07.466Z,251.3
2017-11-12T04:13:08.184Z,262.6
2017-11-12T04:14:08.903Z,231.8
2017-11-12T04:15:09.733Z,270.2
2017-11-12T04:16:10.454Z,230.1
2017-11-12T04:17:11.238Z,228.7
2017-11-12T04:18:11.973Z,215.4
2017-11-12T04:19:12.750Z,234.3
2017-11-12T04:20:13.895Z,233.3
2017-11-12T04:21:14.685Z,209.0
2017-11-12T04:22:15.479Z,243.0
2017-11-12T04:23:16.208Z,242.9
2017-11-12T04:24:16.940Z,240.5
2017-11-12T04:25:18.076Z,232.0
2017-11-12T04:26:18.869Z,222.1
2017-11-12T04:27:19.592Z,224.2
2017-11-12T04:28:20.314Z,239.4
2017-11-12T04:29:21.051Z,246.1
2017-11-12T04:30:22.472Z,204.3
2017-11-12T04:31:23.259Z,246.8
2017-11-12T04:32:23.972Z,261.5
2017-11-12T04:33:24.688Z,241.5
2017-11-12T04:34:25.409Z,219.0
2017-11-12T04:35:26.139Z,231.1
2017-11-12T04:36:26.920Z,247.3
2017-11-12T04:37:27.677Z,220.2
2017-11-12T04:38:28.404Z,216.8
2017-11-12T04:39:29.205Z,243.6
2017-11-12T04:40:29.906Z,228.3
2017-11-12T04:41:30.627Z,221.7
2017-11-12T04:42:31.455Z,220.6
2017-11-12T04:43:32.239Z,239.3
2017-11-12T04:44:32.963Z,233.1
2017-11-12T04:45:33.682Z,219.3
2017-11-12T04:46:34.408Z,241.5
2017-11-12T04:47:35.129Z,227.7
2017-11-12T04:48:35.912Z,244.7
2017-11-12T04:49:36.680Z,242.9
2017-11-12T04:50:37.423Z,242.0
2017-11-12T04:51:38.149Z,231.3
2017-11-12T04:52:38.880Z,213.3
2017-11-12T04:53:39.586Z,251.1
2017-11-12T04:54:40.293Z,231.0
2017-11-12T04:55:41.009Z,240.3
2017-11-12T04:56:41.739Z,239.6
2017-11-12T04:57:42.544Z,231.2
2017-11-12T04:58:43.453Z,254.6
2017-11-12T04:59:44.177Z,230.5
2017-11-12T05:00:44.958Z,232.0
2017-11-12T05:01:45.732Z,244.6
2017-11-12T05:02:46.508Z,223.2
2017-11-12T05:03:47.291Z,248.8
2017-11-12T05:04:48.004Z,240.0
2017-11-12T05:05:48.734Z,217.4
2017-11-12T05:06:49.624Z,250.7
2017-11-12T05:07:50.338Z,265.8
2017-11-12T05:08:51.085Z,230.6
2017-11-12T05:09:51.789Z,235.5
2017-11-12T05:10:52.503Z,229.2
2017-11-12T05:11:53.277Z,250.0
2017-11-12T05:12:53.992Z,259.0
2017-11-12T05:13:54.705Z,237.7
2017-11-12T05:14:55.433Z,249.7
2017-11-12T05:15:56.250Z,242.8
2017-11-12T05:16:57.015Z,239.2
2017-11-12T05:17:57.841Z,239.8
2017-11-12T05:18:58.622Z,273.3
2017-11-12T05:19:59.393Z,243.7
2017-11-12T05:21:00.120Z,267.4
2017-11-12T05:22:00.943Z,231.9
2017-11-12T05:23:01.673Z,274.0
2017-11-12T05:24:02.398Z,284.1
2017-11-12T05:25:03.172Z,248.2
2017-11-12T05:26:03.883Z,261.4
2017-11-12T05:27:04.889Z,237.4
2017-11-12T05:28:05.604Z,270.9
2017-11-12T05:29:06.372Z,231.9
2017-11-12T05:30:07.102Z,247.3
2017-11-12T05:31:07.822Z,248.9
2017-11-12T05:32:08.550Z,258.9
2017-11-12T05:33:09.272Z,270.1
2017-11-12T05:34:10.059Z,248.5
2017-11-12T05:35:10.899Z,256.9
2017-11-12T05:36:11.646Z,238.8
2017-11-12T05:37:12.420Z,253.3
2017-11-12T05:38:13.183Z,240.8
2017-11-12T05:39:13.982Z,250.8
2017-11-12T05:40:14.704Z,257.4
2017-11-12T05:41:15.483Z,268.6
2017-11-12T05:42:16.199Z,256.5
2017-11-12T05:43:16.973Z,271.3
2017-11-12T05:44:17.738Z,261.6
2017-11-12T05:45:18.521Z,249.9
2017-11-12T05:46:19.310Z,265.2
2017-11-12T05:47:20.040Z,244.5
2017-11-12T05:48:21.212Z,277.6
2017-11-12T05:49:21.925Z,244.3
2017-11-12T05:50:22.699Z,246.2
2017-11-12T05:51:23.435Z,263.2
2017-11-12T05:52:24.193Z,255.2
2017-11-12T05:53:24.930Z,248.8
2017-11-12T05:54:25.649Z,275.3
2017-11-12T05:55:26.372Z,257.2
2017-11-12T05:56:27.103Z,268.7
2017-11-12T05:57:27.841Z,269.9
2017-11-12T05:58:28.665Z,274.2
2017-11-12T05:59:29.385Z,290.0
2017-11-12T06:00:30.173Z,261.4
2017-11-12T06:01:30.905Z,262.0
2017-11-12T06:02:31.633Z,261.1
2017-11-12T06:03:32.439Z,263.6
2017-11-12T06:04:33.172Z,281.9
2017-11-12T06:05:33.897Z,277.8
2017-11-12T06:06:34.708Z,259.8
2017-11-12T06:07:35.469Z,263.4
2017-11-12T06:08:36.229Z,273.3
2017-11-12T06:09:36.944Z,289.3
2017-11-12T06:10:37.673Z,273.8
2017-11-12T06:11:38.466Z,297.4
2017-11-12T06:12:39.256Z,288.6
2017-11-12T06:13:40.389Z,283.8
2017-11-12T06:14:41.102Z,291.8
2017-11-12T06:15:41.864Z,276.8
2017-11-12T06:16:42.667Z,284.9
2017-11-12T06:17:43.449Z,279.7
2017-11-12T06:18:44.229Z,293.2
2017-11-12T06:19:44.949Z,296.1
2017-11-12T06:20:45.681Z,308.9
2017-11-12T06:21:46.483Z,319.0
2017-11-12T06:22:47.239Z,278.5
2017-11-12T06:23:48.013Z,290.9
2017-11-12T06:24:48.738Z,320.5
2017-11-12T06:25:49.463Z,321.6
2017-11-12T06:26:50.198Z,316.6
2017-11-12T06:27:50.974Z,289.9
2017-11-12T06:28:51.801Z,336.8
2017-11-12T06:29:52.553Z,299.1
2017-11-12T06:30:53.331Z,320.4
2017-11-12T06:31:54.083Z,319.5
2017-11-12T06:32:54.820Z,323.6
2017-11-12T06:33:55.623Z,289.2
2017-11-12T06:34:56.341Z,301.7
2017-11-12T06:35:57.169Z,319.5
2017-11-12T06:36:57.942Z,329.1
2017-11-12T06:37:58.710Z,320.2
2017-11-12T06:38:59.493Z,311.7
2017-11-12T06:40:00.215Z,326.9
2017-11-12T06:41:00.943Z,341.4
2017-11-12T06:42:01.663Z,339.3
2017-11-12T06:43:02.394Z,309.3
2017-11-12T06:44:03.232Z,321.5
2017-11-12T06:45:03.964Z,298.2
2017-11-12T06:46:04.671Z,321.8
2017-11-12T06:47:05.400Z,322.8
2017-11-12T06:48:06.194Z,316.8
2017-11-12T06:49:06.993Z,311.0
2017-11-12T06:50:07.789Z,356.9
2017-11-12T06:51:08.556Z,319.7
2017-11-12T06:52:09.370Z,330.6
2017-11-12T06:53:10.095Z,314.4
2017-11-12T06:54:10.848Z,342.3
2017-11-12T06:55:11.649Z,323.6
2017-11-12T06:56:12.453Z,332.0
2017-11-12T06:57:13.228Z,348.2
2017-11-12T06:58:14.024Z,310.6
2017-11-12T06:59:14.817Z,308.1
2017-11-12T07:00:15.550Z,314.8
2017-11-12T07:01:16.288Z,342.5
2017-11-12T07:02:17.430Z,350.0
2017-11-12T07:03:18.157Z,325.0
2017-11-12T07:04:18.881Z,311.6
2017-11-12T07:05:19.676Z,328.0
2017-11-12T07:06:20.410Z,312.2
2017-11-12T07:07:21.198Z,342.1
2017-11-12T07:08:21.943Z,314.1
2017-11-12T07:09:22.667Z,293.7
2017-11-12T07:10:23.475Z,314.5
2017-11-12T07:11:24.289Z,311.8
2017-11-12T07:12:25.059Z,309.1
2017-11-12T07:13:25.790Z,302.1
2017-11-12T07:14:26.543Z,315.8
2017-11-12T07:15:27.353Z,312.9
2017-11-12T07:16:28.128Z,288.0
2017-11-12T07:17:29.161Z,292.0
2017-11-12T07:18:29.931Z,290.3
2017-11-12T07:19:30.652Z,271.9
2017-11-12T07:20:31.383Z,303.3
2017-11-12T07:21:32.193Z,276.1
2017-11-12T07:22:33.390Z,307.9
2017-11-12T07:23:34.137Z,316.8
2017-11-12T07:24:34.849Z,301.9
2017-11-12T07:25:35.570Z,282.1
2017-11-12T07:26:36.314Z,282.2
2017-11-12T07:27:37.042Z,272.3
2017-11-12T07:28:37.809Z,314.2
2017-11-12T07:29:38.561Z,291.7
2017-11-12T07:30:39.280Z,286.6
2017-11-12T07:31:40.021Z,272.4
2017-11-12T07:32:40.800Z,271.1
2017-11-12T07:33:41.942Z,262.1
2017-11-12T07:34:42.671Z,273.4
2017-11-12T07:35:43.479Z,268.5
2017-11-12T07:36:44.213Z,252.6
2017-11-12T07:37:44.941Z,267.8
2017-11-12T07:38:46.140Z,257.1
2017-11-12T07:39:46.928Z,257.7
2017-11-12T07:40:47.661Z,266.1
2017-11-12T07:41:48.394Z,273.2
2017-11-12T07:42:49.110Z,250.4
2017-11-12T07:43:49.949Z,257.5
2017-11-12T07:44:50.691Z,289.8
2017-11-12T07:45:51.495Z,265.8
2017-11-12T07:46:52.274Z,274.6
2017-11-12T07:47:52.997Z,241.3
2017-11-12T07:48:53.782Z,232.3
2017-11-12T07:49:54.588Z,227.6
2017-11-12T07:50:55.321Z,211.0
2017-11-12T07:51:56.046Z,222.1
2017-11-12T07:52:56.862Z,219.9
2017-11-12T07:53:57.695Z,201.6
2017-11-12T07:54:58.483Z,229.1
2017-11-12T07:55:59.215Z,223.7
2017-11-12T07:56:59.946Z,199.8
2017-11-12T07:58:00.683Z,205.9
2017-11-12T07:59:01.471Z,208.0
2017-11-12T08:00:02.240Z,187.4
2017-11-12T08:01:02.981Z,208.9
2017-11-12T08:02:03.708Z,192.7
2017-11-12T08:03:04.443Z,175.3
2017-11-12T08:04:05.234Z,181.2
2017-11-12T08:05:05.962Z,169.1
2017-11-12T08:06:06.727Z,307.2
2017-11-12T08:07:07.485Z,225.9
2017-11-12T08:08:08.223Z,189.3
2017-11-12T08:09:09.059Z,184.3
2017-11-12T08:10:09.805Z,179.9
2017-11-12T08:11:10.603Z,193.4
2017-11-12T08:12:11.372Z,185.7
2017-11-12T08:13:12.249Z,243.3
2017-11-12T08:14:13.394Z,181.1
2017-11-12T08:15:14.174Z,161.7
2017-11-12T08:16:14.973Z,161.7
2017-11-12T08:17:15.703Z,156.5
2017-11-12T08:18:16.512Z,154.2
2017-11-12T08:19:17.592Z,153.7
2017-11-12T08:20:18.401Z,153.3
2017-11-12T08:21:19.121Z,150.1
2017-11-12T08:22:19.923Z,156.5
2017-11-12T08:23:20.652Z,148.6
2017-11-12T08:24:21.425Z,153.4
2017-11-12T08:25:22.200Z,138.5
2017-11-12T08:26:22.967Z,140.3
2017-11-12T08:27:23.698Z,137.8
2017-11-12T08:28:24.482Z,142.9
2017-11-12T08:29:25.200Z,138.5
2017-11-12T08:30:26.301Z,125.8
2017-11-12T08:31:27.032Z,106.0
2017-11-12T08:32:27.844Z,108.0
2017-11-12T08:33:28.581Z,118.8
2017-11-12T08:34:29.298Z,110.4
2017-11-12T08:35:30.097Z,102.0
2017-11-12T08:36:30.883Z,90.9
2017-11-12T08:37:31.966Z,88.4
2017-11-12T08:38:32.780Z,109.2
2017-11-12T08:39:33.514Z,95.2
2017-11-12T08:40:34.293Z,96.8
2017-11-12T08:41:35.023Z,87.0
2017-11-12T08:42:36.156Z,77.3
2017-11-12T08:43:36.900Z,79.8
2017-11-12T08:44:37.677Z,82.6
2017-11-12T08:45:38.512Z,85.3
2017-11-12T08:46:39.239Z,90.3
2017-11-12T08:47:40.425Z,91.4
2017-11-12T08:48:41.145Z,75.0
2017-11-12T08:49:41.868Z,88.8
2017-11-12T08:50:42.616Z,82.1
2017-11-12T08:51:43.386Z,84.6
2017-11-12T08:52:44.129Z,88.8
2017-11-12T08:53:44.921Z,90.8
2017-11-12T08:54:45.752Z,85.4
2017-11-12T08:55:46.480Z,96.7
2017-11-12T08:56:47.282Z,79.3
2017-11-12T08:57:48.012Z,77.0
2017-11-12T08:58:48.728Z,78.1
2017-11-12T08:59:49.751Z,75.2
2017-11-12T09:00:50.549Z,79.5
2017-11-12T09:01:51.285Z,78.5
2017-11-12T09:02:52.013Z,75.0
2017-11-12T09:03:52.734Z,72.6
2017-11-12T09:04:53.533Z,70.1
2017-11-12T09:05:54.268Z,67.1
2017-11-12T09:06:55.038Z,64.4
2017-11-12T09:07:55.764Z,69.0
2017-11-12T09:08:56.488Z,76.3
2017-11-12T09:09:57.368Z,76.8
2017-11-12T09:10:58.091Z,73.4
2017-11-12T09:11:58.902Z,76.6
2017-11-12T09:12:59.581Z,73.4
2017-11-12T09:14:00.323Z,75.9
2017-11-12T09:15:01.221Z,81.0
2017-11-12T09:16:02.025Z,82.1
2017-11-12T09:17:02.814Z,81.5
2017-11-12T09:18:03.627Z,73.6
2017-11-12T09:19:04.422Z,76.7
2017-11-12T09:20:05.566Z,68.3
2017-11-12T09:21:06.372Z,69.7
2017-11-12T09:22:07.094Z,73.0
2017-11-12T09:23:07.836Z,68.6
2017-11-12T09:24:08.600Z,62.3
2017-11-12T09:25:09.440Z,62.7
2017-11-12T09:26:10.174Z,67.7
2017-11-12T09:27:10.981Z,57.6
2017-11-12T09:28:11.712Z,71.8
2017-11-12T09:29:12.434Z,64.2
2017-11-12T09:30:13.573Z,64.9
2017-11-12T09:31:14.303Z,62.2
2017-11-12T09:32:15.066Z,63.1
2017-11-12T09:33:15.834Z,66.6
2017-11-12T09:34:16.597Z,74.6
2017-11-12T09:35:17.442Z,69.1
2017-11-12T09:36:18.190Z,73.0
2017-11-12T09:37:18.920Z,82.8
2017-11-12T09:38:19.676Z,77.7
2017-11-12T09:39:20.491Z,63.1
2017-11-12T09:40:21.319Z,63.7
2017-11-12T09:41:22.118Z,61.0
2017-11-12T09:42:22.834Z,66.9
2017-11-12T09:43:23.571Z,69.2
2017-11-12T09:44:24.408Z,61.6
2017-11-12T09:45:25.248Z,68.1
2017-11-12T09:46:25.982Z,58.3
2017-11-12T09:47:27.368Z,59.4
2017-11-12T09:48:28.112Z,70.6
2017-11-12T09:49:28.960Z,59.0
2017-11-12T09:50:30.004Z,60.3
2017-11-12T09:51:30.762Z,63.8
2017-11-12T09:52:31.493Z,59.9
2017-11-12T09:53:32.232Z,63.8
2017-11-12T09:54:32.965Z,63.1
2017-11-12T09:55:34.752Z,69.2
2017-11-12T09:56:35.427Z,57.6
2017-11-12T09:57:36.225Z,60.3
2017-11-12T09:58:37.026Z,61.1
2017-11-12T09:59:37.753Z,65.9
2017-11-12T10:00:38.471Z,63.2
2017-11-12T10:01:39.247Z,66.1
2017-11-12T10:02:39.982Z,57.6
2017-11-12T10:03:40.778Z,64.2
2017-11-12T10:04:41.521Z,60.6
2017-11-12T10:05:42.300Z,59.1
2017-11-12T10:06:43.123Z,62.6
2017-11-12T10:07:43.899Z,66.4
2017-11-12T10:08:44.883Z,65.2
2017-11-12T10:09:45.564Z,67.6
2017-11-12T10:10:46.297Z,63.9
2017-11-12T10:11:47.135Z,71.2
2017-11-12T10:12:47.859Z,73.9
2017-11-12T10:13:48.794Z,85.1
2017-11-12T10:14:49.535Z,73.3
2017-11-12T10:15:50.262Z,61.0
2017-11-12T10:16:50.982Z,61.4
2017-11-12T10:17:51.892Z,55.4
2017-11-12T10:18:52.561Z,67.3
2017-11-12T10:19:53.288Z,52.5
2017-11-12T10:20:54.025Z,59.6
2017-11-12T10:21:54.924Z,58.7
2017-11-12T10:22:55.667Z,58.6
2017-11-12T10:23:56.399Z,55.2
2017-11-12T10:24:58.112Z,54.9
2017-11-12T10:25:59.140Z,40.5
2017-11-12T10:26:59.973Z,46.0
2017-11-12T10:28:00.719Z,53.2
2017-11-12T10:29:01.481Z,49.8
2017-11-12T10:30:02.216Z,54.2
2017-11-12T10:31:02.960Z,49.8
2017-11-12T10:32:04.120Z,64.6
2017-11-12T10:33:04.779Z,44.4
2017-11-12T10:34:06.008Z,46.6
2017-11-12T10:35:06.990Z,41.3
2017-11-12T10:36:08.057Z,46.7
2017-11-12T10:37:08.938Z,48.2
2017-11-12T10:38:09.666Z,51.7
2017-11-12T10:39:10.459Z,50.4
2017-11-12T10:40:11.267Z,49.3
2017-11-12T10:41:12.226Z,53.2
2017-11-12T10:42:13.122Z,52.3
2017-11-12T10:43:13.957Z,46.7
2017-11-12T10:44:14.791Z,48.5
2017-11-12T10:45:16.788Z,51.6
2017-11-12T10:46:17.574Z,47.1
2017-11-12T10:47:18.415Z,51.1
2017-11-12T10:48:19.153Z,49.6
2017-11-12T10:49:19.939Z,52.5
2017-11-12T10:50:21.349Z,51.3
2017-11-12T10:51:22.017Z,43.7
2017-11-12T10:52:23.239Z,44.8
2017-11-12T10:53:24.284Z,43.7
2017-11-12T10:54:25.065Z,46.5
2017-11-12T10:55:25.875Z,48.5
2017-11-12T10:56:26.673Z,44.6
2017-11-12T10:57:27.457Z,45.8
2017-11-12T10:58:28.251Z,49.0
2017-11-12T10:59:29.034Z,46.8
2017-11-12T11:00:29.832Z,51.1
2017-11-12T11:01:30.556Z,45.6
2017-11-12T11:02:31.282Z,40.6
2017-11-12T11:03:32.063Z,51.4
2017-11-12T11:04:32.799Z,43.0
2017-11-12T11:05:33.528Z,49.7
2017-11-12T11:06:34.259Z,48.7
2017-11-12T11:07:35.047Z,52.0
2017-11-12T11:08:35.776Z,45.1
2017-11-12T11:09:36.564Z,50.5
2017-11-12T11:10:37.292Z,55.9
2017-11-12T11:11:38.031Z,49.5
2017-11-12T11:12:38.802Z,50.7
2017-11-12T11:13:39.599Z,49.0
2017-11-12T11:14:40.325Z,58.9
2017-11-12T11:15:41.099Z,53.6
2017-11-12T11:16:41.829Z,53.2
2017-11-12T11:17:42.676Z,55.2
2017-11-12T11:18:43.398Z,58.2
2017-11-12T11:19:44.133Z,53.6
2017-11-12T11:20:44.918Z,57.0
2017-11-12T11:21:45.675Z,68.6
2017-11-12T11:22:46.764Z,69.7
2017-11-12T11:23:47.489Z,71.7
2017-11-12T11:24:48.212Z,64.2
2017-11-12T11:25:48.954Z,76.2
2017-11-12T11:26:49.663Z,77.7
2017-11-12T11:27:50.874Z,69.7
2017-11-12T11:28:51.591Z,46.9
2017-11-12T11:29:52.382Z,56.4
2017-11-12T11:30:53.112Z,65.1
2017-11-12T11:31:53.831Z,58.5
2017-11-12T11:32:54.550Z,53.3
2017-11-12T11:33:55.347Z,61.5
2017-11-12T11:34:56.095Z,50.1
2017-11-12T11:35:56.789Z,48.4
2017-11-12T11:36:57.520Z,51.3
2017-11-12T11:37:58.367Z,54.5
2017-11-12T11:38:59.144Z,49.8
2017-11-12T11:39:59.862Z,49.3
2017-11-12T11:41:00.613Z,51.2
2017-11-12T11:42:01.373Z,45.8
2017-11-12T11:43:02.529Z,51.2
2017-11-12T11:44:03.264Z,50.2
2017-11-12T11:45:04.070Z,53.3
2017-11-12T11:46:04.842Z,46.3
2017-11-12T11:47:05.819Z,55.5
2017-11-12T11:48:06.891Z,56.1
2017-11-12T11:49:07.647Z,55.3
2017-11-12T11:50:08.448Z,55.4
2017-11-12T11:51:09.139Z,53.1
2017-11-12T11:52:09.853Z,49.1
2017-11-12T11:53:10.591Z,53.7
2017-11-12T11:54:11.422Z,68.4
2017-11-12T11:55:12.256Z,51.7
2017-11-12T11:56:12.969Z,59.6
2017-11-12T11:57:13.697Z,51.7
2017-11-12T11:58:14.443Z,57.4
2017-11-12T11:59:15.289Z,51.5
2017-11-12T12:00:16.018Z,52.9
2017-11-12T12:01:16.738Z,55.0
2017-11-12T12:02:17.538Z,51.8
2017-11-12T12:03:18.271Z,56.4
2017-11-12T12:04:19.049Z,63.8
2017-11-12T12:05:19.782Z,70.6
2017-11-12T12:06:20.522Z,62.6
2017-11-12T12:07:21.401Z,63.2
2017-11-12T12:08:22.136Z,50.6
2017-11-12T12:09:22.858Z,42.3
2017-11-12T12:10:23.581Z,46.0
2017-11-12T12:11:24.409Z,36.2
2017-11-12T12:12:25.553Z,36.2
2017-11-12T12:13:26.408Z,34.8
2017-11-12T12:14:27.213Z,38.6
2017-11-12T12:15:27.932Z,33.0
2017-11-12T12:16:28.748Z,33.6
2017-11-12T12:17:29.576Z,27.2
2017-11-12T12:18:30.303Z,34.0
2017-11-12T12:19:31.029Z,32.5
2017-11-12T12:20:31.777Z,34.5
2017-11-12T12:21:32.503Z,40.9
2017-11-12T12:22:33.583Z,36.3
2017-11-12T12:23:34.421Z,32.4
2017-11-12T12:24:35.197Z,30.8
2017-11-12T12:25:37.104Z,29.8
2017-11-12T12:26:38.206Z,33.8
2017-11-12T12:27:39.354Z,30.3
2017-11-12T12:28:40.061Z,30.4
2017-11-12T12:29:40.794Z,34.4
2017-11-12T12:30:41.536Z,32.8
2017-11-12T12:31:42.399Z,27.5
2017-11-12T12:32:43.820Z,27.6
2017-11-12T12:33:44.568Z,26.6
2017-11-12T12:34:45.428Z,30.2
2017-11-12T12:35:46.152Z,34.0
2017-11-12T12:36:46.944Z,28.3
2017-11-12T12:37:47.749Z,28.5
2017-11-12T12:38:48.617Z,29.1
2017-11-12T12:39:49.381Z,31.7
2017-11-12T12:40:50.107Z,36.7
2017-11-12T12:41:50.879Z,28.8
2017-11-12T12:42:51.597Z,27.5
2017-11-12T12:43:52.340Z,27.4
2017-11-12T12:44:53.141Z,27.3
2017-11-12T12:45:53.870Z,30.4
2017-11-12T12:46:54.661Z,31.1
2017-11-12T12:47:55.516Z,27.8
2017-11-12T12:48:56.594Z,27.7
2017-11-12T12:49:57.264Z,26.2
2017-11-12T12:50:57.992Z,22.7
2017-11-12T12:51:58.721Z,26.9
2017-11-12T12:52:59.455Z,26.1
2017-11-12T12:54:00.265Z,25.9
2017-11-12T12:55:00.973Z,36.1
2017-11-12T12:56:01.779Z,30.9
2017-11-12T12:57:02.692Z,27.3
2017-11-12T12:58:03.435Z,26.3
2017-11-12T12:59:04.243Z,32.0
2017-11-12T13:00:05.048Z,26.2
2017-11-12T13:01:05.768Z,27.8
2017-11-12T13:02:06.855Z,28.6
2017-11-12T13:03:07.658Z,21.4
2017-11-12T13:04:08.414Z,27.1
2017-11-12T13:05:09.308Z,22.9
2017-11-12T13:06:10.083Z,22.3
2017-11-12T13:07:10.810Z,22.3
2017-11-12T13:08:11.552Z,23.1
2017-11-12T13:09:12.264Z,23.7
2017-11-12T13:10:12.993Z,24.9
2017-11-12T13:11:13.753Z,21.0
2017-11-12T13:12:14.548Z,26.5
2017-11-12T13:13:15.379Z,26.6